Time;durP1;ratioP1;P1;durP2;ratioP2;P2;SDS_P1;SDS_P2;PMS_P1;PMS_P2;Temp;Humidity;BMP_temperature;BMP_pressure;BME280_temperature;BME280_humidity;BME280_pressure;Samples;Min_cycle;Max_cycle;Signal;HPM_P1;HPM_P2
2021/12/16 00:01:47;;;;;;;2.10;2.00;;;;;;;21.31;35.67;100794.72;1875452;75;28187;-70
2021/12/16 00:07:51;;;;;;;2.40;2.30;;;;;;;21.22;35.76;100795.89;1889893;75;28075;-70
2021/12/16 00:10:35;;;;;;;2.30;2.20;;;;;;;21.17;35.85;100791.52;1898019;75;28101;-70
2021/12/16 00:31:58;;;;;;;2.08;1.98;;;;;;;20.90;36.28;100792.24;1854789;76;28164;-69
2021/12/16 00:34:39;;;;;;;2.12;2.02;;;;;;;20.83;36.42;100799.00;1844275;76;28187;-70
2021/12/16 00:37:28;;;;;;;2.40;2.30;;;;;;;20.82;36.46;100800.02;1855807;76;28667;-70
2021/12/16 00:40:17;;;;;;;2.55;2.35;;;;;;;20.82;36.48;100803.30;1849435;76;28109;-68
2021/12/16 00:43:21;;;;;;;2.55;2.42;;;;;;;20.82;36.52;100797.83;1847507;76;28237;-70
2021/12/16 00:49:49;;;;;;;2.40;2.20;;;;;;;20.77;36.52;100803.84;1836522;76;28132;-70
2021/12/16 00:55:15;;;;;;;2.27;2.10;;;;;;;20.77;36.56;100807.11;1842213;76;28167;-73
2021/12/16 00:57:55;;;;;;;2.50;2.40;;;;;;;20.73;36.64;100808.51;1857995;76;28062;-69
2021/12/16 01:00:54;;;;;;;2.20;2.10;;;;;;;20.71;36.62;100807.86;1848842;76;28818;-71
2021/12/16 06:33:27;;;;;;;8.70;5.90;;;;;;;15.84;45.87;100829.82;1952119;72;28190;-66
2021/12/16 06:36:16;;;;;;;9.53;6.05;;;;;;;15.17;42.98;100837.98;1902193;75;28073;-66
2021/12/16 06:39:07;;;;;;;6.92;5.83;;;;;;;14.99;41.04;100842.53;1924365;73;28179;-65
2021/12/16 06:42:05;;;;;;;3.90;3.57;;;;;;;15.55;41.23;100836.86;1902307;75;28185;-64
2021/12/16 06:45:04;;;;;;;3.83;3.53;;;;;;;16.31;42.11;100839.25;1902105;73;28166;-64
2021/12/16 06:47:57;;;;;;;3.50;3.20;;;;;;;16.92;41.98;100843.11;1901525;75;28124;-64
2021/12/16 06:53:51;;;;;;;4.75;3.05;;;;;;;17.83;41.00;100825.77;1913075;73;28125;-65
2021/12/16 06:56:46;;;;;;;2.70;2.50;;;;;;;18.16;40.56;100829.28;1931686;73;28258;-64
2021/12/16 06:59:31;;;;;;;3.00;2.80;;;;;;;18.44;40.06;100837.37;1902213;75;28218;-66
2021/12/16 07:02:37;;;;;;;2.67;2.47;;;;;;;18.70;39.70;100834.92;1902253;75;28194;-67
2021/12/16 07:05:11;;;;;;;2.80;2.60;;;;;;;18.93;39.37;100846.72;1912554;73;28105;-64
2021/12/16 07:08:01;;;;;;;2.52;2.33;;;;;;;19.10;39.09;100843.75;1906647;73;28167;-64
2021/12/16 07:10:53;;;;;;;2.58;2.37;;;;;;;19.25;38.79;100844.66;1901987;75;28263;-65
2021/12/16 07:13:45;;;;;;;2.20;2.10;;;;;;;19.32;38.55;100842.91;1902080;75;28156;-65
2021/12/16 07:16:32;;;;;;;2.52;2.30;;;;;;;19.44;38.39;100850.72;1902113;75;28237;-65
2021/12/16 07:19:21;;;;;;;2.62;2.40;;;;;;;19.52;38.25;100845.20;1901974;75;28214;-66
2021/12/16 07:22:12;;;;;;;2.25;2.10;;;;;;;19.60;38.09;100847.36;1902258;75;28221;-66
2021/12/16 07:25:03;;;;;;;2.40;2.20;;;;;;;19.65;37.97;100841.37;1902135;75;28152;-66
2021/12/16 07:27:52;;;;;;;2.37;2.03;;;;;;;19.72;37.89;100845.05;1902309;75;28165;-64
2021/12/16 07:30:44;;;;;;;2.45;2.30;;;;;;;19.74;37.87;100845.17;1930000;73;28130;-65
2021/12/16 07:33:50;;;;;;;2.47;2.30;;;;;;;19.84;37.70;100851.23;1908685;73;28850;-64
2021/12/16 07:36:41;;;;;;;2.20;2.10;;;;;;;19.79;37.74;100849.56;1902286;75;28423;-66
2021/12/16 07:39:37;;;;;;;2.12;2.02;;;;;;;19.82;37.78;100856.53;1922129;73;28089;-64
2021/12/16 07:42:29;;;;;;;4.27;2.30;;;;;;;19.89;37.68;100856.13;1903955;73;28169;-64
2021/12/16 07:45:14;;;;;;;2.33;2.20;;;;;;;19.89;37.67;100859.71;1901071;75;28134;-64
2021/12/16 07:48:03;;;;;;;3.10;2.05;;;;;;;19.92;37.73;100858.50;1909575;74;28139;-66
2021/12/16 07:50:56;;;;;;;2.70;2.15;;;;;;;19.94;37.74;100861.89;1909760;74;28220;-65
2021/12/16 07:53:45;;;;;;;8.85;2.90;;;;;;;19.98;37.76;100864.06;1928583;73;28263;-65
2021/12/16 07:56:35;;;;;;;3.85;2.40;;;;;;;19.99;38.03;100864.91;1905013;73;28175;-66
2021/12/16 07:59:27;;;;;;;2.65;2.22;;;;;;;20.01;38.13;100866.94;1904199;73;28203;-67
2021/12/16 08:02:15;;;;;;;3.75;2.25;;;;;;;20.03;38.21;100868.11;1909731;74;28027;-67
2021/12/16 08:05:05;;;;;;;4.87;2.20;;;;;;;20.02;38.28;100875.47;1901660;75;28074;-66
2021/12/16 08:07:54;;;;;;;2.83;2.27;;;;;;;20.01;38.31;100868.30;1901431;75;28121;-69
2021/12/16 08:10:43;;;;;;;3.03;2.10;;;;;;;20.00;38.41;100873.41;1901630;75;28176;-67
2021/12/16 08:13:33;;;;;;;4.15;2.05;;;;;;;20.00;38.60;100871.54;1909990;73;28200;-67
2021/12/16 08:16:22;;;;;;;3.93;2.27;;;;;;;20.04;38.70;100873.39;1903891;73;28215;-66
2021/12/16 08:19:11;;;;;;;4.00;2.35;;;;;;;20.07;38.80;100880.37;1914437;73;28156;-66
2021/12/16 08:22:00;;;;;;;2.70;2.25;;;;;;;20.07;39.00;100873.55;1901199;75;28176;-66
2021/12/16 08:24:48;;;;;;;3.53;2.40;;;;;;;20.04;39.27;100878.85;1913410;73;28098;-68
2021/12/16 08:27:39;;;;;;;2.60;2.10;;;;;;;20.02;39.40;100879.55;1927411;73;28220;-68
2021/12/16 08:30:29;;;;;;;2.37;2.07;;;;;;;20.02;39.53;100887.73;1901463;73;28087;-65
2021/12/16 08:33:19;;;;;;;5.25;2.40;;;;;;;20.00;39.67;100884.32;1901232;75;28535;-66
2021/12/16 08:36:10;;;;;;;2.58;2.00;;;;;;;19.98;39.70;100884.52;1901490;75;28190;-67
2021/12/16 08:38:59;;;;;;;2.65;2.27;;;;;;;19.99;39.71;100888.09;1921046;73;28039;-67
2021/12/16 08:41:51;;;;;;;3.30;2.10;;;;;;;20.00;39.75;100895.23;1904135;73;28305;-67
2021/12/16 08:44:40;;;;;;;2.10;2.00;;;;;;;19.98;39.75;100894.06;1920829;73;28124;-67
2021/12/16 08:47:31;;;;;;;2.50;2.30;;;;;;;19.98;39.81;100893.20;1901802;75;28150;-68
2021/12/16 08:50:22;;;;;;;2.67;2.27;;;;;;;19.98;39.78;100898.66;1909036;73;28023;-66
2021/12/16 08:53:11;;;;;;;2.00;1.90;;;;;;;19.97;39.77;100896.47;1910240;73;28129;-66
2021/12/16 08:56:00;;;;;;;4.87;2.35;;;;;;;19.96;39.79;100899.36;1920592;73;28068;-66
2021/12/16 08:58:49;;;;;;;2.20;2.00;;;;;;;19.94;39.81;100899.56;1927036;73;28154;-66
2021/12/16 09:01:40;;;;;;;2.75;2.05;;;;;;;19.96;39.72;100898.00;1901334;75;28187;-66
2021/12/16 09:04:30;;;;;;;2.12;1.92;;;;;;;19.97;39.74;100899.71;1903360;73;28152;-66
2021/12/16 09:07:20;;;;;;;2.90;2.00;;;;;;;19.97;39.72;100899.71;1901520;75;28116;-68
2021/12/16 09:10:12;;;;;;;2.20;2.10;;;;;;;19.95;39.73;100899.05;1913133;73;28154;-66
2021/12/16 09:13:04;;;;;;;2.00;1.90;;;;;;;19.94;39.74;100905.52;1906480;73;28108;-67
2021/12/16 09:15:59;;;;;;;2.50;2.10;;;;;;;19.93;39.71;100909.27;1924105;73;28145;-68
2021/12/16 09:18:47;;;;;;;1.90;1.80;;;;;;;19.93;39.75;100903.81;1901340;75;28175;-68
2021/12/16 09:21:54;;;;;;;2.20;2.00;;;;;;;19.90;39.78;100905.56;1901507;75;28075;-66
2021/12/16 09:24:43;;;;;;;3.10;2.00;;;;;;;19.88;39.75;100908.45;1901262;75;28215;-66
2021/12/16 09:28:39;;;;;;;2.17;2.08;;;;;;;19.95;39.71;100909.95;1960591;72;28016;-66
2021/12/16 09:31:30;;;;;;;2.10;2.00;;;;;;;19.89;39.75;100916.13;1919416;73;28137;-66
2021/12/16 09:34:18;;;;;;;2.70;2.10;;;;;;;19.91;39.65;100920.37;1913427;73;28135;-66
2021/12/16 09:37:08;;;;;;;2.30;2.10;;;;;;;19.91;39.71;100919.52;1907062;73;28168;-68
2021/12/16 09:39:57;;;;;;;2.37;2.17;;;;;;;19.89;39.63;100919.70;1902173;75;28640;-66
2021/12/16 09:42:45;;;;;;;2.58;2.20;;;;;;;19.88;39.67;100920.72;1902052;75;28062;-66
2021/12/16 09:45:34;;;;;;;2.25;2.12;;;;;;;19.88;39.64;100923.45;1911976;73;28064;-67
2021/12/16 09:48:23;;;;;;;2.60;1.90;;;;;;;19.88;39.63;100928.08;1909343;73;28230;-66
2021/12/16 09:51:17;;;;;;;2.00;1.90;;;;;;;19.87;39.62;100928.59;1902418;75;28185;-66
2021/12/16 09:54:10;;;;;;;2.17;2.02;;;;;;;19.85;39.66;100935.25;1902406;73;28125;-66
2021/12/16 09:57:02;;;;;;;2.10;2.00;;;;;;;19.85;39.65;100936.61;1924391;73;28035;-66
2021/12/16 09:59:50;;;;;;;2.27;2.08;;;;;;;19.84;39.67;100937.12;1902066;75;28090;-67
2021/12/16 10:02:39;;;;;;;2.35;2.15;;;;;;;19.85;39.69;100942.92;1902241;75;28124;-66
2021/12/16 10:05:31;;;;;;;4.90;2.52;;;;;;;19.84;39.62;100933.55;1930463;73;28133;-66
2021/12/16 10:08:22;;;;;;;2.15;1.95;;;;;;;19.84;39.66;100928.94;1900111;73;28166;-66
2021/12/16 10:11:11;;;;;;;2.50;2.30;;;;;;;19.86;39.62;100924.16;1906861;73;28135;-66
2021/12/16 10:14:19;;;;;;;2.45;2.25;;;;;;;19.83;39.61;100917.72;1914367;73;28195;-66
2021/12/16 10:20:03;;;;;;;2.43;2.23;;;;;;;19.83;39.59;100909.55;1902391;73;28167;-66
2021/12/16 10:22:53;;;;;;;2.90;2.50;;;;;;;19.84;39.60;100906.27;1924738;73;28152;-66
2021/12/16 10:25:44;;;;;;;2.72;2.52;;;;;;;19.83;39.58;100905.45;1902207;75;28431;-66
2021/12/16 10:28:54;;;;;;;2.77;2.58;;;;;;;19.82;39.64;100898.80;1904838;73;28157;-66
2021/12/16 10:31:43;;;;;;;3.05;2.50;;;;;;;19.79;39.65;100897.28;1915516;73;28154;-66
2021/12/16 10:34:31;;;;;;;3.08;2.67;;;;;;;19.82;39.68;100893.34;1889791;75;28123;-66
2021/12/16 10:37:31;;;;;;;3.27;2.87;;;;;;;19.81;39.65;100884.84;1910094;73;28072;-66
2021/12/16 10:40:31;;;;;;;3.23;2.60;;;;;;;19.82;39.65;100887.89;1924477;73;28148;-66
2021/12/16 10:43:41;;;;;;;3.05;2.50;;;;;;;19.82;39.65;100885.16;1892729;74;28189;-66
2021/12/16 10:46:32;;;;;;;3.08;2.80;;;;;;;19.81;39.65;100886.21;1901394;75;28116;-67
2021/12/16 10:49:25;;;;;;;3.10;2.80;;;;;;;19.81;39.63;100883.48;1889160;75;28584;-66
2021/12/16 10:52:16;;;;;;;3.20;2.60;;;;;;;19.82;39.62;100889.25;1901482;75;28140;-66
2021/12/16 10:55:05;;;;;;;3.47;2.83;;;;;;;19.83;39.60;100895.05;1889213;75;28097;-66
2021/12/16 10:57:53;;;;;;;3.58;3.27;;;;;;;19.80;39.63;100887.23;1911911;74;28175;-66
2021/12/16 11:00:42;;;;;;;3.83;3.30;;;;;;;19.83;39.66;100884.15;1901481;75;28102;-66
2021/12/16 11:03:46;;;;;;;3.67;3.30;;;;;;;19.84;39.59;100883.09;1924110;73;28143;-66
2021/12/16 11:06:38;;;;;;;3.60;3.30;;;;;;;19.86;39.56;100879.70;1889440;75;28133;-66
2021/12/16 11:09:33;;;;;;;5.22;3.50;;;;;;;19.84;39.56;100879.01;1888925;75;28125;-66
2021/12/16 11:12:25;;;;;;;3.72;3.20;;;;;;;19.79;39.62;100873.28;1888941;75;28196;-66
2021/12/16 11:15:31;;;;;;;3.52;3.20;;;;;;;19.82;39.59;100876.98;1889111;75;28231;-66
2021/12/16 11:18:28;;;;;;;3.75;3.37;;;;;;;19.81;39.58;100872.04;1915215;73;28192;-67
2021/12/16 11:21:17;;;;;;;3.55;3.25;;;;;;;19.81;39.61;100871.22;1924991;73;28122;-67
2021/12/16 11:24:25;;;;;;;4.20;3.80;;;;;;;19.80;39.59;100869.00;1889000;75;28153;-67
2021/12/16 11:27:28;;;;;;;3.90;3.50;;;;;;;19.80;39.58;100869.50;1901403;75;28243;-67
2021/12/16 11:30:32;;;;;;;4.05;3.40;;;;;;;19.81;39.58;100873.95;1889116;75;28250;-66
2021/12/16 11:33:26;;;;;;;4.57;3.60;;;;;;;19.79;39.61;100869.20;1901641;75;28522;-66
2021/12/16 11:36:23;;;;;;;6.45;3.90;;;;;;;19.78;39.63;100872.94;1889266;75;28079;-66
2021/12/16 11:39:17;;;;;;;4.80;3.70;;;;;;;19.81;39.59;100871.22;1923662;73;28160;-67
2021/12/16 11:42:06;;;;;;;4.62;3.70;;;;;;;19.79;39.56;100871.37;1889257;75;28150;-66
2021/12/16 11:44:57;;;;;;;3.77;3.45;;;;;;;19.79;39.60;100869.20;1914094;73;28046;-66
2021/12/16 11:47:55;;;;;;;4.72;3.65;;;;;;;19.83;39.49;100873.24;1889261;75;28133;-67
2021/12/16 11:50:44;;;;;;;4.00;3.60;;;;;;;19.81;39.54;100873.41;1914513;73;28060;-67
2021/12/16 11:53:48;;;;;;;3.80;3.30;;;;;;;19.81;39.48;100875.31;1891443;74;28160;-67
2021/12/16 11:56:39;;;;;;;4.50;3.70;;;;;;;19.81;39.48;100869.85;1899732;75;28248;-66
2021/12/16 11:59:30;;;;;;;4.10;3.63;;;;;;;19.79;39.52;100874.11;1917311;73;28165;-66
2021/12/16 12:02:33;;;;;;;3.70;3.40;;;;;;;19.80;39.49;100873.09;1901587;75;28138;-66
2021/12/16 12:05:34;;;;;;;3.83;3.43;;;;;;;19.82;39.52;100864.72;1889093;74;28110;-67
2021/12/16 12:08:29;;;;;;;4.33;3.60;;;;;;;19.80;39.51;100862.69;1900806;75;30137;-66
2021/12/16 12:11:21;;;;;;;3.72;3.42;;;;;;;19.80;39.47;100858.60;1908286;73;28005;-67
2021/12/16 12:14:12;;;;;;;5.00;3.75;;;;;;;19.80;39.48;100854.52;1900376;74;28251;-68
2021/12/16 12:17:07;;;;;;;4.45;3.40;;;;;;;19.80;39.44;100851.27;1916417;73;28203;-66
2021/12/16 12:20:15;;;;;;;3.83;3.40;;;;;;;19.80;39.42;100854.00;1929126;73;28149;-66
2021/12/16 12:23:05;;;;;;;3.85;3.45;;;;;;;19.77;39.48;100850.78;1890278;74;38818;-67
2021/12/16 12:25:53;;;;;;;4.25;3.52;;;;;;;19.78;39.50;100844.31;1893061;74;28051;-66
2021/12/16 12:28:43;;;;;;;4.00;3.60;;;;;;;19.79;39.48;100841.93;1901289;75;28191;-68
2021/12/16 12:31:35;;;;;;;3.95;3.52;;;;;;;19.81;39.42;100839.86;1901512;74;28197;-66
2021/12/16 12:34:23;;;;;;;3.65;3.27;;;;;;;19.79;39.40;100835.11;1901481;75;37293;-66
2021/12/16 12:37:15;;;;;;;4.67;3.67;;;;;;;19.80;39.41;100835.42;1901753;73;28231;-67
2021/12/16 12:40:12;;;;;;;4.12;3.50;;;;;;;19.80;39.38;100827.25;1913260;74;28099;-66
2021/12/16 12:43:02;;;;;;;3.98;3.47;;;;;;;19.80;39.35;100825.88;1901142;75;28091;-67
2021/12/16 12:45:50;;;;;;;5.20;3.60;;;;;;;19.83;39.35;100820.07;1901358;75;28063;-66
2021/12/16 12:48:43;;;;;;;4.40;3.70;;;;;;;19.80;39.34;100824.02;1929861;73;28127;-67
2021/12/16 12:51:34;;;;;;;4.05;3.40;;;;;;;19.83;39.35;100821.44;1912278;73;28132;-66
2021/12/16 12:54:28;;;;;;;3.95;3.52;;;;;;;19.82;39.29;100817.00;1907797;73;28181;-67
2021/12/16 12:57:29;;;;;;;4.00;3.58;;;;;;;19.82;39.30;100819.73;1901632;75;31995;-68
2021/12/16 13:00:44;;;;;;;3.60;3.17;;;;;;;19.81;39.27;100813.96;1901459;75;28530;-66
2021/12/16 13:03:41;;;;;;;4.78;3.37;;;;;;;19.79;39.28;100814.66;1901389;75;28094;-67
2021/12/16 13:06:29;;;;;;;3.90;3.60;;;;;;;19.76;39.38;100809.06;1931588;73;28046;-68
2021/12/16 13:09:30;;;;;;;3.43;3.13;;;;;;;19.79;39.31;100808.67;1910756;73;28206;-69
2021/12/16 13:13:01;;;;;;;3.67;3.30;;;;;;;19.79;39.27;100810.58;1901433;75;28273;-66
2021/12/16 13:15:55;;;;;;;3.80;3.40;;;;;;;19.81;39.30;100816.69;1901057;75;28052;-66
2021/12/16 13:28:13;;;;;;;3.25;3.05;;;;;;;19.77;39.31;100824.88;1826106;77;28352;-66
2021/12/16 13:31:04;;;;;;;3.50;3.20;;;;;;;19.74;39.32;100825.27;1827149;76;33126;-67
2021/12/16 13:33:56;;;;;;;3.22;2.92;;;;;;;19.74;39.35;100820.64;1906123;73;28409;-66
2021/12/16 13:36:50;;;;;;;3.77;3.20;;;;;;;19.76;39.33;100821.33;1901639;75;28039;-67
2021/12/16 13:39:44;;;;;;;3.58;3.25;;;;;;;19.76;39.25;100825.42;1917698;73;28134;-67
2021/12/16 13:42:50;;;;;;;3.70;3.15;;;;;;;19.77;39.29;100823.52;1901380;75;28088;-67
2021/12/16 13:45:48;;;;;;;3.33;3.00;;;;;;;19.77;39.29;100820.79;1923170;73;28134;-68
2021/12/16 13:58:28;;;;;;;4.67;3.30;;;;;;;19.77;39.25;100819.42;1901610;75;28043;-67
2021/12/16 14:07:54;;;;;;;2.90;2.70;;;;;;;19.71;39.33;100816.08;1922419;73;28130;-68
2021/12/16 14:10:53;;;;;;;5.00;2.98;;;;;;;19.70;39.35;100821.19;1901388;75;28152;-66
2021/12/16 14:23:12;;;;;;;3.00;2.70;;;;;;;19.71;39.30;100805.19;1901843;75;28117;-69
2021/12/16 14:33:11;;;;;;;3.12;2.72;;;;;;;19.66;39.26;100809.83;1908915;74;28122;-66
2021/12/16 14:35:17;;;;;;;3.50;3.17;;;;;;;19.70;39.26;100817.11;1806615;79;28375;-68
2021/12/16 14:38:26;;;;;;;3.05;2.80;;;;;;;19.74;39.22;100822.00;1820309;77;28213;-69
2021/12/16 14:41:12;;;;;;;3.08;2.77;;;;;;;19.73;39.20;100818.96;1896007;74;28226;-67
2021/12/16 14:50:15;;;;;;;2.90;2.70;;;;;;;19.74;39.17;100829.36;1903068;74;28471;-66
2021/12/16 14:53:12;;;;;;;3.15;2.90;;;;;;;19.69;39.21;100831.78;1903446;74;28128;-67
2021/12/16 14:56:04;;;;;;;3.58;2.87;;;;;;;19.72;39.18;100825.97;1901013;74;28089;-66
2021/12/16 14:58:55;;;;;;;3.30;2.90;;;;;;;19.72;39.15;100828.16;1897466;74;28050;-67
2021/12/16 15:01:48;;;;;;;2.80;2.60;;;;;;;19.74;39.12;100833.45;1910764;74;28113;-66
2021/12/16 15:04:36;;;;;;;3.62;2.80;;;;;;;19.75;39.11;100833.77;1890949;74;28125;-66
2021/12/16 15:07:26;;;;;;;2.83;2.60;;;;;;;19.73;39.12;100829.02;1900067;74;28206;-66
2021/12/16 15:10:17;;;;;;;3.00;2.75;;;;;;;19.76;39.12;100826.78;1901660;74;28088;-67
2021/12/16 15:13:13;;;;;;;2.67;2.47;;;;;;;19.75;39.08;100833.77;1905325;74;28125;-66
2021/12/16 15:37:54;;;;;;;2.70;2.50;;;;;;;19.70;39.07;100830.22;1887956;75;28265;-68
2021/12/16 15:40:41;;;;;;;2.80;2.60;;;;;;;19.70;39.08;100835.67;1868226;76;28210;-67
2021/12/16 15:43:31;;;;;;;2.70;2.50;;;;;;;19.72;39.04;100832.78;1866275;76;28320;-67
2021/12/16 15:46:15;;;;;;;2.57;2.37;;;;;;;19.71;39.07;100840.11;1869252;76;28203;-67
2021/12/16 15:49:04;;;;;;;2.60;2.40;;;;;;;19.73;39.03;100837.19;1866228;76;28217;-66
2021/12/16 15:51:56;;;;;;;2.83;2.50;;;;;;;19.75;38.98;100835.12;1868264;76;28238;-68
2021/12/16 15:54:51;;;;;;;2.67;2.47;;;;;;;19.76;38.93;100841.78;1867653;75;28314;-67
2021/12/16 15:57:39;;;;;;;2.40;2.30;;;;;;;19.75;38.95;100848.25;1880091;75;28315;-67
2021/12/16 16:00:29;;;;;;;2.58;2.37;;;;;;;19.75;38.95;100846.88;1867639;76;28156;-67
2021/12/16 16:03:19;;;;;;;2.50;2.40;;;;;;;19.74;38.95;100845.72;1888458;75;28248;-66
2021/12/16 16:06:11;;;;;;;2.67;2.47;;;;;;;19.73;38.95;100846.73;1868558;76;28246;-67
2021/12/16 16:09:03;;;;;;;2.67;2.47;;;;;;;19.74;38.95;100852.53;1868158;76;28175;-66
2021/12/16 16:11:54;;;;;;;2.42;2.22;;;;;;;19.73;38.96;100853.55;1866319;76;28159;-66
2021/12/16 16:14:46;;;;;;;2.50;2.30;;;;;;;19.73;39.00;100856.27;1867243;76;30067;-66
2021/12/16 16:17:53;;;;;;;2.55;2.35;;;;;;;19.74;38.93;100856.63;1868949;76;28157;-67
2021/12/16 16:20:34;;;;;;;2.52;2.33;;;;;;;19.71;38.95;100856.47;1867977;76;28255;-68
2021/12/16 16:23:25;;;;;;;2.33;2.12;;;;;;;19.71;38.98;100856.47;1867889;76;28141;-67
2021/12/16 16:26:16;;;;;;;2.30;2.20;;;;;;;19.72;38.97;100865.50;1877633;75;28179;-66
2021/12/16 16:29:07;;;;;;;2.67;2.47;;;;;;;19.71;38.93;100861.92;1873283;75;28290;-66
2021/12/16 16:31:57;;;;;;;2.37;2.25;;;;;;;19.71;38.99;100864.65;1868395;76;28252;-66
2021/12/16 16:34:49;;;;;;;2.77;2.58;;;;;;;19.69;38.98;100857.68;1892235;75;28034;-66
2021/12/16 16:37:38;;;;;;;2.50;2.40;;;;;;;19.73;38.94;100864.45;1878290;75;28092;-66
2021/12/16 16:40:26;;;;;;;2.47;2.27;;;;;;;19.71;38.93;100865.16;1898698;75;28002;-67
2021/12/16 16:43:22;;;;;;;2.45;2.25;;;;;;;19.70;38.95;100867.03;1898667;75;28631;-67
2021/12/16 16:46:15;;;;;;;2.40;2.20;;;;;;;19.73;38.93;100860.36;1898677;75;28120;-66
2021/12/16 16:49:08;;;;;;;2.33;2.22;;;;;;;19.68;38.94;100858.70;1898804;75;33108;-66
2021/12/16 16:51:59;;;;;;;2.60;2.40;;;;;;;19.70;38.92;100867.53;1892936;75;28726;-66
2021/12/16 16:56:45;;;;;;;2.55;2.37;;;;;;;19.74;38.84;100872.44;1939156;72;28032;-66
2021/12/16 16:59:46;;;;;;;2.47;2.27;;;;;;;19.71;38.92;100865.16;1893488;75;31990;-66
2021/12/16 17:02:47;;;;;;;2.42;2.33;;;;;;;19.67;38.93;100872.01;1881227;75;28145;-66
2021/12/16 17:05:41;;;;;;;2.40;2.25;;;;;;;19.66;38.98;100874.39;1887183;75;28072;-67
2021/12/16 17:08:35;;;;;;;2.20;2.10;;;;;;;19.65;38.95;100868.63;1882831;75;28137;-66
2021/12/16 17:11:25;;;;;;;2.08;1.98;;;;;;;19.62;39.03;100862.16;1893622;75;28164;-66
2021/12/16 17:14:18;;;;;;;2.10;2.00;;;;;;;19.64;38.98;100869.12;1891243;75;28048;-67
2021/12/16 17:17:28;;;;;;;2.47;2.27;;;;;;;19.64;39.00;100869.64;1869736;76;28266;-67
2021/12/16 17:20:15;;;;;;;2.30;2.20;;;;;;;19.65;38.93;100868.63;1887862;75;28043;-67
2021/12/16 17:23:09;;;;;;;2.42;2.22;;;;;;;19.65;38.96;100872.71;1882575;75;28050;-68
2021/12/16 17:25:56;;;;;;;2.40;2.30;;;;;;;19.67;38.91;100868.78;1893899;75;28153;-68
2021/12/16 17:28:44;;;;;;;2.30;2.20;;;;;;;19.66;38.91;100867.58;1891694;75;28086;-66
2021/12/16 17:31:45;;;;;;;2.23;2.13;;;;;;;19.67;38.88;100867.92;1887221;75;28169;-67
2021/12/16 17:34:50;;;;;;;2.33;2.22;;;;;;;19.69;38.85;100873.53;1883409;75;28081;-67
2021/12/16 17:37:42;;;;;;;2.40;2.20;;;;;;;19.66;38.86;100868.94;1835991;75;28158;-67
2021/12/16 17:40:37;;;;;;;2.47;2.30;;;;;;;19.65;38.89;100865.90;1880706;75;31015;-67
2021/12/16 17:43:27;;;;;;;2.40;2.20;;;;;;;19.64;38.90;100865.05;1880591;75;28190;-66
2021/12/16 17:46:19;;;;;;;2.05;1.95;;;;;;;19.65;38.87;100864.00;1883374;75;28507;-67
2021/12/16 17:49:09;;;;;;;2.12;2.02;;;;;;;19.65;38.85;100853.09;1883322;75;28086;-67
2021/12/16 17:51:57;;;;;;;2.33;2.13;;;;;;;19.64;38.86;100858.73;1894497;75;28223;-66
2021/12/16 17:54:49;;;;;;;2.37;2.20;;;;;;;19.64;38.85;100854.65;1871362;75;28192;-66
2021/12/16 17:58:09;;;;;;;2.22;2.02;;;;;;;19.66;38.88;100853.95;1866601;76;28152;-66
2021/12/16 18:00:57;;;;;;;2.02;1.92;;;;;;;19.63;38.91;100857.88;1835657;77;28254;-67
2021/12/16 18:03:54;;;;;;;2.30;2.10;;;;;;;19.63;38.89;100852.94;1848685;76;28058;-66
2021/12/16 18:06:46;;;;;;;2.50;2.20;;;;;;;19.63;38.86;100851.06;1845605;76;28066;-67
2021/12/16 18:09:38;;;;;;;2.02;1.92;;;;;;;19.65;38.84;100848.18;1840818;76;28194;-66
2021/12/16 18:12:31;;;;;;;2.42;2.22;;;;;;;19.66;38.82;100851.22;1835220;77;28170;-66
2021/12/16 18:15:24;;;;;;;2.17;2.08;;;;;;;19.65;38.78;100846.28;1866332;76;28191;-67
2021/12/16 18:18:15;;;;;;;2.17;2.08;;;;;;;19.62;38.82;100849.39;1834981;77;28172;-67
2021/12/16 18:21:05;;;;;;;2.12;2.02;;;;;;;19.63;38.86;100850.21;1856007;76;28138;-66
2021/12/16 18:24:01;;;;;;;2.37;2.20;;;;;;;19.64;38.81;100852.77;1856238;76;28066;-67
2021/12/16 18:26:49;;;;;;;2.25;2.15;;;;;;;19.63;38.85;100851.58;1852509;76;28161;-66
2021/12/16 18:29:38;;;;;;;2.10;2.00;;;;;;;19.62;38.83;100852.11;1847519;76;28157;-67
2021/12/16 18:32:30;;;;;;;2.10;2.00;;;;;;;19.67;38.76;100850.20;1838321;76;28187;-66
2021/12/16 18:35:22;;;;;;;2.30;2.15;;;;;;;19.65;38.75;100851.73;1856056;76;28206;-66
2021/12/16 18:38:13;;;;;;;2.12;2.02;;;;;;;19.65;38.79;100860.45;1853810;76;28269;-67
2021/12/16 18:41:07;;;;;;;2.30;2.10;;;;;;;19.64;38.79;100860.10;1849078;76;33003;-67
2021/12/16 18:43:57;;;;;;;2.10;2.00;;;;;;;19.63;38.79;100859.25;1845540;76;28576;-67
2021/12/16 18:46:47;;;;;;;2.15;2.05;;;;;;;19.60;38.84;100859.63;1845113;76;28336;-66
2021/12/16 18:49:42;;;;;;;2.10;2.00;;;;;;;19.60;38.81;100849.23;1847139;76;28198;-66
2021/12/16 18:52:47;;;;;;;2.10;2.00;;;;;;;19.63;38.78;100859.75;1849279;76;28103;-66
2021/12/16 18:55:20;;;;;;;2.20;2.00;;;;;;;19.66;38.79;100856.67;1856377;76;28226;-68
2021/12/16 18:58:09;;;;;;;1.90;1.80;;;;;;;19.65;38.72;100859.91;1860570;75;28142;-67
2021/12/16 19:01:01;;;;;;;2.30;2.10;;;;;;;19.63;38.79;100848.84;1901774;75;28048;-67
2021/12/16 19:03:49;;;;;;;2.27;2.00;;;;;;;19.62;38.79;100849.89;1845340;77;28186;-67
2021/12/16 19:06:41;;;;;;;2.00;1.90;;;;;;;19.62;38.75;100851.26;1878544;75;28250;-67
2021/12/16 19:09:30;;;;;;;2.00;1.90;;;;;;;19.62;38.78;100844.45;1891355;75;28629;-67
2021/12/16 19:12:23;;;;;;;2.02;1.92;;;;;;;19.63;38.78;100844.25;1878448;75;28135;-66
2021/12/16 19:15:15;;;;;;;2.00;1.90;;;;;;;19.61;38.76;100848.19;1872832;75;28200;-66
2021/12/16 19:18:06;;;;;;;2.27;2.07;;;;;;;19.63;38.79;100847.48;1857347;77;28184;-66
2021/12/16 19:20:55;;;;;;;2.30;2.20;;;;;;;19.60;38.77;100850.09;1891415;75;28153;-66
2021/12/16 19:23:47;;;;;;;2.15;2.05;;;;;;;19.63;38.77;100843.40;1890560;75;28101;-66
2021/12/16 19:26:36;;;;;;;2.25;2.02;;;;;;;19.61;38.81;100844.09;1870426;75;28121;-67
2021/12/16 19:29:25;;;;;;;2.05;1.95;;;;;;;19.61;38.77;100846.31;1867111;75;28083;-66
2021/12/16 19:32:16;;;;;;;2.10;2.00;;;;;;;19.60;38.80;100840.55;1885534;75;28045;-66
2021/12/16 19:35:08;;;;;;;2.10;2.00;;;;;;;19.62;38.74;100837.63;1889838;75;28075;-66
2021/12/16 19:37:57;;;;;;;2.10;2.00;;;;;;;19.61;38.75;100838.14;1886383;75;28117;-66
2021/12/16 19:40:46;;;;;;;2.00;1.90;;;;;;;19.61;38.72;100841.38;1866779;75;28041;-67
2021/12/16 19:43:35;;;;;;;2.10;2.00;;;;;;;19.60;38.73;100841.06;1875998;75;28200;-67
2021/12/16 19:46:44;;;;;;;2.10;2.00;;;;;;;19.62;38.70;100834.40;1891354;75;28161;-66
2021/12/16 19:49:35;;;;;;;2.33;2.12;;;;;;;19.61;38.75;100831.84;1875085;75;28116;-67
2021/12/16 19:52:23;;;;;;;2.00;1.90;;;;;;;19.58;38.76;100829.50;1869703;75;28072;-67
2021/12/16 19:55:12;;;;;;;1.80;1.70;;;;;;;19.58;38.77;100834.41;1894777;75;28253;-66
2021/12/16 19:58:04;;;;;;;2.37;2.17;;;;;;;19.60;38.75;100831.52;1889623;74;28514;-66
2021/12/16 20:00:55;;;;;;;2.30;2.10;;;;;;;19.60;38.72;100834.25;1895822;74;28070;-66
2021/12/16 20:03:46;;;;;;;2.10;2.00;;;;;;;19.58;38.68;100822.14;1886456;74;28192;-67
2021/12/16 20:06:36;;;;;;;2.08;1.98;;;;;;;19.60;38.67;100831.02;1885798;74;28155;-66
2021/12/16 20:09:28;;;;;;;2.47;2.27;;;;;;;19.62;38.67;100830.82;1878998;74;28168;-67
2021/12/16 20:12:19;;;;;;;3.10;2.30;;;;;;;19.60;38.23;100828.80;1893067;74;28122;-66
2021/12/16 20:18:28;;;;;;;2.77;2.35;;;;;;;19.65;38.37;100828.56;1809403;72;28410;-57
2021/12/16 20:21:26;;;;;;;2.20;2.00;;;;;;;19.67;38.40;100833.34;1862572;74;28129;-58
2021/12/16 20:24:16;;;;;;;3.17;2.15;;;;;;;19.71;38.45;100826.98;1864457;74;28097;-58
2021/12/16 20:27:10;;;;;;;2.30;2.10;;;;;;;19.74;38.51;100828.81;1862222;75;28267;-58
2021/12/16 20:30:02;;;;;;;2.42;2.17;;;;;;;19.78;38.51;100832.04;1863261;76;28587;-57
2021/12/16 20:33:02;;;;;;;2.20;2.10;;;;;;;19.78;38.59;100825.22;1868662;76;28606;-58
2021/12/16 20:35:56;;;;;;;2.60;2.20;;;;;;;19.83;38.61;100829.11;1854599;76;28171;-58
2021/12/16 20:38:48;;;;;;;2.20;2.10;;;;;;;19.84;38.58;100832.66;1849457;76;28321;-57
2021/12/16 20:41:39;;;;;;;2.30;2.20;;;;;;;19.88;38.64;100823.09;1858096;75;28251;-57